Time;durP1;ratioP1;P1;durP2;ratioP2;P2;SDS_P1;SDS_P2;PMS_P1;PMS_P2;Temp;Humidity;BMP_temperature;BMP_pressure;BME280_temperature;BME280_humidity;BME280_pressure;Samples;Min_cycle;Max_cycle;Signal;HPM_P1;HPM_P2
2022/05/13 00:02:06;;;;;;;5.25;2.85;;;14.90;99.90;;;;;;5053256;28;20178;-55
2022/05/13 00:04:32;;;;;;;7.22;2.53;;;14.80;99.90;;;;;;5053109;28;20738;-56
2022/05/13 00:06:58;;;;;;;11.02;2.55;;;14.60;99.90;;;;;;5052766;28;20159;-56
2022/05/13 00:09:56;;;;;;;9.15;2.35;;;14.60;99.90;;;;;;5053163;28;20178;-57
2022/05/13 00:12:10;;;;;;;9.32;2.72;;;14.50;99.90;;;;;;5052689;28;20214;-56
2022/05/13 00:14:35;;;;;;;8.32;2.03;;;14.60;99.90;;;;;;5053612;28;20175;-56
2022/05/13 00:17:01;;;;;;;7.65;2.50;;;14.50;99.90;;;;;;5053031;28;20173;-55
2022/05/13 00:19:27;;;;;;;10.77;3.38;;;14.50;99.90;;;;;;5053041;28;20179;-56
2022/05/13 00:21:52;;;;;;;11.50;3.22;;;14.50;99.90;;;;;;5053140;28;20177;-55
2022/05/13 00:24:18;;;;;;;12.48;2.97;;;14.50;99.90;;;;;;5053010;28;20650;-56
2022/05/13 00:26:43;;;;;;;11.98;2.78;;;14.40;99.90;;;;;;5052894;28;20166;-56
2022/05/13 00:29:09;;;;;;;5.95;2.08;;;14.40;99.90;;;;;;5053096;28;20245;-56
2022/05/13 00:31:35;;;;;;;11.38;2.50;;;14.40;99.90;;;;;;5052691;28;20292;-55
2022/05/13 00:34:01;;;;;;;6.88;2.58;;;14.40;99.90;;;;;;5052962;28;20166;-54
2022/05/13 00:36:27;;;;;;;9.85;2.47;;;14.50;99.90;;;;;;5052715;28;20640;-55
2022/05/13 00:38:52;;;;;;;10.57;2.15;;;14.40;99.90;;;;;;5052641;28;20173;-55
2022/05/13 00:41:18;;;;;;;5.88;2.17;;;14.40;99.90;;;;;;5052533;28;20212;-55
2022/05/13 00:43:46;;;;;;;12.70;3.20;;;14.40;99.90;;;;;;5052554;28;20167;-55
2022/05/13 00:46:12;;;;;;;8.07;2.53;;;14.50;99.90;;;;;;5052747;28;20174;-56
2022/05/13 00:48:38;;;;;;;7.82;2.53;;;14.60;99.90;;;;;;5051509;28;20245;-56
2022/05/13 00:51:06;;;;;;;4.38;2.17;;;14.60;99.90;;;;;;5052348;28;20210;-56
2022/05/13 00:53:34;;;;;;;8.20;2.38;;;14.60;99.90;;;;;;5052345;28;20162;-55
2022/05/13 00:56:00;;;;;;;8.60;2.38;;;14.60;99.90;;;;;;5052387;28;20173;-55
2022/05/13 00:58:26;;;;;;;10.60;2.30;;;14.60;99.90;;;;;;5052320;28;20162;-56
2022/05/13 01:00:52;;;;;;;9.65;2.55;;;14.70;99.90;;;;;;5052273;28;20277;-56
2022/05/13 01:03:18;;;;;;;10.65;2.42;;;14.60;99.90;;;;;;5052123;28;20642;-57
2022/05/13 01:05:46;;;;;;;5.18;2.15;;;14.50;99.90;;;;;;5052442;28;20175;-56
2022/05/13 01:08:12;;;;;;;9.18;2.22;;;14.60;99.90;;;;;;5052143;28;20199;-55
2022/05/13 01:10:40;;;;;;;10.07;2.45;;;14.50;99.90;;;;;;5052557;28;20293;-55
2022/05/13 01:13:10;;;;;;;3.72;2.50;;;14.40;99.90;;;;;;5052399;28;20209;-54
2022/05/13 01:15:39;;;;;;;8.30;2.53;;;14.20;99.90;;;;;;5052480;28;20167;-54
2022/05/13 01:18:06;;;;;;;7.97;2.85;;;14.10;99.90;;;;;;5052365;28;20170;-54
2022/05/13 01:20:48;;;;;;;13.10;2.72;;;14.10;99.90;;;;;;5052249;28;20255;-54
2022/05/13 01:23:28;;;;;;;9.15;2.88;;;14.20;99.90;;;;;;5051735;28;20166;-54
2022/05/13 01:25:58;;;;;;;11.32;3.35;;;14.20;99.90;;;;;;5051736;28;20213;-54
2022/05/13 01:28:37;;;;;;;14.02;3.08;;;14.30;99.90;;;;;;5051905;28;20177;-54
2022/05/13 01:31:07;;;;;;;14.48;3.80;;;14.30;99.90;;;;;;5051740;28;20221;-53
2022/05/13 01:33:33;;;;;;;14.05;3.10;;;14.30;99.90;;;;;;5050644;28;20245;-54
2022/05/13 01:36:01;;;;;;;13.25;2.65;;;14.30;99.90;;;;;;5051849;28;20320;-54
2022/05/13 01:38:30;;;;;;;11.75;3.30;;;14.10;99.90;;;;;;5051973;28;20175;-54
2022/05/13 01:40:56;;;;;;;8.30;2.80;;;14.00;99.90;;;;;;5051701;28;20170;-54
2022/05/13 01:43:22;;;;;;;10.45;2.67;;;13.90;99.90;;;;;;5051770;28;20689;-53
2022/05/13 01:45:48;;;;;;;12.05;2.25;;;13.90;99.90;;;;;;5051815;28;20217;-54
2022/05/13 01:48:14;;;;;;;12.13;2.72;;;13.90;99.90;;;;;;5051804;28;20174;-56
2022/05/13 01:50:40;;;;;;;13.07;2.80;;;13.80;99.90;;;;;;5052186;28;20202;-56
2022/05/13 01:53:07;;;;;;;12.00;2.92;;;13.70;99.90;;;;;;5052221;28;20166;-56
2022/05/13 01:55:32;;;;;;;5.47;2.42;;;13.70;99.90;;;;;;5051701;28;20252;-56
2022/05/13 01:57:58;;;;;;;8.85;2.92;;;13.70;99.90;;;;;;5051578;28;20198;-56
2022/05/13 02:00:24;;;;;;;8.77;1.92;;;13.60;99.90;;;;;;5051592;28;20167;-56
2022/05/13 02:05:34;;;;;;;17.27;2.90;;;13.60;99.90;;;;;;5051842;28;20535;-56
2022/05/13 02:08:00;;;;;;;8.73;2.45;;;13.60;99.90;;;;;;5051552;28;20171;-56
2022/05/13 02:10:25;;;;;;;9.80;2.50;;;13.60;99.90;;;;;;5051403;28;20689;-56
2022/05/13 02:12:51;;;;;;;4.18;1.92;;;13.50;99.90;;;;;;5051515;28;20193;-57
2022/05/13 02:15:17;;;;;;;9.10;2.72;;;13.50;99.90;;;;;;5051419;28;20159;-57
2022/05/13 02:17:42;;;;;;;9.15;2.88;;;13.40;99.90;;;;;;5051442;28;20170;-55
2022/05/13 02:20:08;;;;;;;12.38;3.13;;;13.40;99.90;;;;;;5051763;28;20532;-56
2022/05/13 02:22:34;;;;;;;12.98;2.70;;;13.30;99.90;;;;;;5051632;28;20177;-56
2022/05/13 02:25:00;;;;;;;11.07;2.67;;;13.30;99.90;;;;;;5051575;28;20596;-56
2022/05/13 02:27:26;;;;;;;8.10;2.20;;;13.30;99.90;;;;;;5051335;28;20597;-56
2022/05/13 02:29:51;;;;;;;8.25;2.20;;;13.20;99.90;;;;;;5051335;28;20166;-56
2022/05/13 02:32:17;;;;;;;9.00;2.20;;;13.20;99.90;;;;;;5051258;28;20597;-56
2022/05/13 02:34:42;;;;;;;12.02;2.67;;;13.20;99.90;;;;;;5051421;28;20175;-54
2022/05/13 02:37:08;;;;;;;6.68;2.28;;;13.20;99.90;;;;;;5055425;28;20166;-55
2022/05/13 02:39:34;;;;;;;5.95;2.05;;;13.30;99.90;;;;;;5054815;28;20174;-55
2022/05/13 02:41:59;;;;;;;8.23;2.65;;;13.20;99.90;;;;;;5054837;28;20254;-55
2022/05/13 02:44:25;;;;;;;8.35;2.15;;;13.10;99.90;;;;;;5055105;28;20179;-56
2022/05/13 02:46:52;;;;;;;9.40;2.08;;;13.00;99.90;;;;;;5055032;28;20178;-56
2022/05/13 02:49:17;;;;;;;8.18;2.05;;;13.00;99.90;;;;;;5053553;28;20163;-56
2022/05/13 02:51:46;;;;;;;5.20;2.03;;;12.90;99.90;;;;;;5053390;28;20212;-56
2022/05/13 02:54:11;;;;;;;7.05;2.22;;;12.90;99.90;;;;;;5054936;28;20568;-55
2022/05/13 02:56:38;;;;;;;10.70;2.67;;;12.90;99.90;;;;;;5054985;28;20174;-56
2022/05/13 02:59:04;;;;;;;6.22;2.20;;;12.90;99.90;;;;;;5054608;28;20155;-56
2022/05/13 03:01:32;;;;;;;8.70;2.28;;;12.90;99.90;;;;;;5054455;28;20175;-56
2022/05/13 03:03:58;;;;;;;6.30;2.72;;;12.90;99.90;;;;;;5053192;28;20214;-56
2022/05/13 03:06:23;;;;;;;6.47;1.75;;;12.80;99.90;;;;;;5054320;28;20224;-56
2022/05/13 03:08:50;;;;;;;6.57;1.85;;;12.70;99.90;;;;;;5054635;28;20232;-56
2022/05/13 03:11:16;;;;;;;6.90;1.95;;;12.60;99.90;;;;;;5054269;28;20205;-56
2022/05/13 03:13:42;;;;;;;5.97;1.75;;;12.60;99.90;;;;;;5054419;28;20539;-56
2022/05/13 03:16:19;;;;;;;8.10;1.90;;;12.60;99.90;;;;;;5054481;28;20182;-56
2022/05/13 03:18:46;;;;;;;7.18;2.30;;;12.50;99.90;;;;;;5053330;28;20170;-56
2022/05/13 03:21:12;;;;;;;5.10;1.55;;;12.40;99.90;;;;;;5054131;28;20189;-55
2022/05/13 03:23:42;;;;;;;4.85;1.65;;;12.30;99.90;;;;;;5054394;28;20166;-56
2022/05/13 03:26:08;;;;;;;5.00;1.63;;;12.30;99.90;;;;;;5054591;28;20166;-54
2022/05/13 03:28:34;;;;;;;5.50;1.70;;;12.30;99.90;;;;;;5054172;28;20521;-54
2022/05/13 03:31:00;;;;;;;6.18;1.95;;;12.20;99.90;;;;;;5053815;28;20214;-54
2022/05/13 03:33:26;;;;;;;3.30;1.55;;;12.20;99.90;;;;;;5053864;28;20166;-54
2022/05/13 03:35:52;;;;;;;8.25;1.85;;;12.20;99.90;;;;;;5053869;28;20194;-54
2022/05/13 03:38:18;;;;;;;6.10;2.00;;;12.20;99.90;;;;;;5054100;28;20253;-54
2022/05/13 03:40:45;;;;;;;6.97;2.13;;;12.20;99.90;;;;;;5053746;28;20195;-54
2022/05/13 03:43:11;;;;;;;10.65;2.22;;;12.30;99.90;;;;;;5053962;28;20174;-54
2022/05/13 03:45:37;;;;;;;6.47;1.88;;;12.30;99.90;;;;;;5054213;28;20200;-54
2022/05/13 03:48:04;;;;;;;4.68;2.22;;;12.20;99.90;;;;;;5052682;28;20198;-54
2022/05/13 03:50:30;;;;;;;6.72;2.35;;;12.20;99.90;;;;;;5053474;28;20273;-54
2022/05/13 03:52:56;;;;;;;7.32;1.85;;;12.20;99.90;;;;;;5053474;28;20211;-54
2022/05/13 03:55:23;;;;;;;5.30;1.70;;;12.20;99.90;;;;;;5053524;28;20213;-53
2022/05/13 03:57:48;;;;;;;2.85;1.55;;;12.20;99.90;;;;;;5053752;28;20171;-54
2022/05/13 04:00:15;;;;;;;5.82;2.13;;;12.20;99.90;;;;;;5053425;28;20212;-54
2022/05/13 04:02:41;;;;;;;5.88;2.00;;;12.20;99.90;;;;;;5053598;28;20163;-53
2022/05/13 04:10:37;;;;;;;5.78;1.80;;;12.30;99.90;;;;;;5053681;28;20255;-54
2022/05/13 04:16:05;;;;;;;6.50;1.75;;;12.30;99.90;;;;;;5053101;28;20174;-54
2022/05/13 04:18:37;;;;;;;7.25;1.70;;;12.20;99.90;;;;;;5052930;28;20570;-54
2022/05/13 04:21:04;;;;;;;9.13;2.15;;;12.30;99.90;;;;;;5053256;28;20190;-54
2022/05/13 04:23:32;;;;;;;6.97;1.98;;;12.30;99.90;;;;;;5053175;28;20177;-55
2022/05/13 04:25:58;;;;;;;6.40;2.20;;;12.20;99.90;;;;;;5053142;28;20179;-55
2022/05/13 04:28:23;;;;;;;6.80;2.40;;;12.20;99.90;;;;;;5052887;28;20169;-55
2022/05/13 04:30:49;;;;;;;8.90;2.05;;;12.20;99.90;;;;;;5051409;28;20190;-55
2022/05/13 04:33:15;;;;;;;5.13;1.92;;;12.20;99.90;;;;;;5052683;28;20166;-54
2022/05/13 04:35:41;;;;;;;8.90;2.40;;;12.30;99.90;;;;;;5052977;28;20170;-54
2022/05/13 04:38:07;;;;;;;6.00;2.40;;;12.30;99.90;;;;;;5052983;28;20253;-53
2022/05/13 04:40:33;;;;;;;11.98;2.72;;;12.40;99.90;;;;;;5052661;28;20253;-53
2022/05/13 04:43:00;;;;;;;7.22;2.45;;;12.50;99.90;;;;;;5052487;28;20305;-53
2022/05/13 04:45:30;;;;;;;9.30;3.10;;;12.50;99.90;;;;;;5052546;28;20197;-55
2022/05/13 04:48:21;;;;;;;7.07;2.40;;;12.40;99.90;;;;;;5052591;28;20624;-56
2022/05/13 04:51:01;;;;;;;7.38;2.35;;;12.40;99.90;;;;;;5052635;28;20212;-56
2022/05/13 04:53:33;;;;;;;6.57;1.90;;;12.40;99.90;;;;;;5052430;28;20658;-55
2022/05/13 04:56:00;;;;;;;9.05;2.55;;;12.50;99.90;;;;;;5052416;28;20249;-54
2022/05/13 04:58:27;;;;;;;6.18;2.85;;;12.60;99.90;;;;;;5052384;28;20173;-54
2022/05/13 05:00:54;;;;;;;9.27;2.65;;;12.50;99.90;;;;;;5050864;28;20652;-55
2022/05/13 05:03:22;;;;;;;7.57;3.20;;;12.60;99.90;;;;;;5052146;28;20210;-54
2022/05/13 05:05:48;;;;;;;7.22;2.58;;;12.60;99.90;;;;;;5052484;28;20521;-54
2022/05/13 05:08:15;;;;;;;9.88;2.90;;;12.60;99.90;;;;;;5052179;28;20257;-54
2022/05/13 05:10:43;;;;;;;6.28;2.30;;;12.70;99.90;;;;;;5051946;28;20301;-54
2022/05/13 05:13:09;;;;;;;6.03;2.38;;;12.80;99.90;;;;;;5052409;28;20162;-53
2022/05/13 05:15:38;;;;;;;7.63;2.13;;;12.80;99.90;;;;;;5051992;28;20205;-54
2022/05/13 05:18:04;;;;;;;5.68;2.20;;;12.80;99.90;;;;;;5052001;28;20595;-55
2022/05/13 05:20:30;;;;;;;5.63;2.45;;;12.80;99.90;;;;;;5051996;28;20165;-53
2022/05/13 05:22:57;;;;;;;7.38;2.65;;;13.00;99.90;;;;;;5051928;28;20170;-54
2022/05/13 05:25:28;;;;;;;7.63;2.40;;;13.00;99.90;;;;;;5051988;28;20250;-54
2022/05/13 05:27:54;;;;;;;6.00;2.55;;;13.00;99.90;;;;;;5051940;28;20261;-54
2022/05/13 05:30:20;;;;;;;6.30;2.40;;;13.10;99.90;;;;;;5051886;28;20636;-54
2022/05/13 05:32:45;;;;;;;8.82;2.33;;;13.20;99.90;;;;;;5051756;28;20245;-54
2022/05/13 05:35:14;;;;;;;5.25;2.40;;;13.40;99.90;;;;;;5051905;28;20251;-54
2022/05/13 05:37:40;;;;;;;7.55;2.38;;;13.40;99.90;;;;;;5052130;28;20254;-55
2022/05/13 05:40:06;;;;;;;8.07;2.15;;;13.50;99.90;;;;;;5052004;28;20618;-55
2022/05/13 05:42:32;;;;;;;8.63;2.00;;;13.40;99.90;;;;;;5051754;28;20190;-54
2022/05/13 05:44:57;;;;;;;8.52;2.15;;;13.50;99.90;;;;;;5051586;28;20252;-54
2022/05/13 05:47:23;;;;;;;8.75;2.45;;;13.40;99.90;;;;;;5051536;28;20166;-54
2022/05/13 05:49:50;;;;;;;9.27;2.33;;;13.50;99.90;;;;;;5051409;28;20235;-55
2022/05/13 05:52:16;;;;;;;6.43;2.35;;;13.60;99.90;;;;;;5051647;28;20217;-54
2022/05/13 05:57:26;;;;;;;4.70;2.20;;;13.60;99.90;;;;;;5051651;28;20182;-54
2022/05/13 05:59:52;;;;;;;7.65;2.30;;;13.60;99.90;;;;;;5051430;28;20162;-55
2022/05/13 06:02:18;;;;;;;8.48;2.75;;;13.50;99.90;;;;;;5051449;28;20163;-55
2022/05/13 06:04:43;;;;;;;10.45;2.20;;;13.50;99.90;;;;;;5051237;28;20222;-54
2022/05/13 06:07:14;;;;;;;7.22;2.53;;;13.40;99.90;;;;;;5051903;28;20170;-54
2022/05/13 06:09:41;;;;;;;6.97;2.20;;;13.50;99.90;;;;;;5051786;28;20167;-54
2022/05/13 06:12:08;;;;;;;7.40;2.95;;;13.50;99.90;;;;;;5055607;28;20547;-54
2022/05/13 06:14:34;;;;;;;6.95;2.25;;;13.60;99.90;;;;;;5055687;28;20167;-54
2022/05/13 06:17:00;;;;;;;10.85;2.53;;;13.60;99.90;;;;;;5055337;28;20663;-54
2022/05/13 06:19:25;;;;;;;7.03;2.10;;;13.70;99.90;;;;;;5055294;28;20170;-54
2022/05/13 06:21:52;;;;;;;4.72;2.10;;;13.90;99.90;;;;;;5055387;28;20203;-54
2022/05/13 06:24:18;;;;;;;6.72;2.35;;;14.00;99.90;;;;;;5055232;28;20163;-54
2022/05/13 06:26:48;;;;;;;5.50;2.72;;;13.90;99.90;;;;;;5055217;28;20551;-55
2022/05/13 06:29:14;;;;;;;6.68;2.50;;;14.10;99.90;;;;;;5054982;28;20662;-54
2022/05/13 06:31:40;;;;;;;6.10;2.35;;;14.20;99.90;;;;;;5055367;28;20220;-55
2022/05/13 06:34:05;;;;;;;5.28;1.80;;;14.30;99.90;;;;;;5055223;28;20261;-55
2022/05/13 06:36:31;;;;;;;9.27;2.47;;;14.20;99.90;;;;;;5054929;28;20163;-54
2022/05/13 06:38:58;;;;;;;9.07;2.63;;;14.60;99.90;;;;;;5054971;28;20163;-54
2022/05/13 06:41:24;;;;;;;6.35;2.28;;;14.70;99.90;;;;;;5054862;28;20203;-56
2022/05/13 06:43:50;;;;;;;7.88;2.10;;;14.60;99.90;;;;;;5054857;28;20647;-55
2022/05/13 06:46:16;;;;;;;5.15;2.20;;;14.80;99.90;;;;;;5054882;28;20174;-55
2022/05/13 06:48:41;;;;;;;8.38;2.42;;;14.80;99.90;;;;;;5054711;28;20167;-55
2022/05/13 06:51:07;;;;;;;5.95;2.35;;;14.70;99.90;;;;;;5054916;28;20209;-55
2022/05/13 06:53:32;;;;;;;9.63;2.20;;;14.40;99.90;;;;;;5054842;28;20177;-54
2022/05/13 06:55:58;;;;;;;5.43;2.20;;;14.50;99.90;;;;;;5054738;28;20173;-55
2022/05/13 06:58:24;;;;;;;5.75;2.47;;;14.70;99.90;;;;;;5054619;28;20163;-57
2022/05/13 07:00:50;;;;;;;7.95;2.17;;;14.70;99.90;;;;;;5054571;28;20225;-55
2022/05/13 07:03:18;;;;;;;4.00;2.00;;;14.90;99.90;;;;;;5053189;28;20301;-55
2022/05/13 07:05:44;;;;;;;5.63;2.22;;;14.70;99.90;;;;;;5054484;28;20180;-55
2022/05/13 07:08:10;;;;;;;4.40;1.98;;;14.70;99.90;;;;;;5054688;28;20182;-55
2022/05/13 07:10:39;;;;;;;4.63;2.10;;;14.90;99.90;;;;;;5054567;28;20593;-55
2022/05/13 07:13:05;;;;;;;6.05;2.10;;;15.10;99.90;;;;;;5054427;28;20577;-55
2022/05/13 07:15:32;;;;;;;6.57;1.83;;;15.20;99.90;;;;;;5054240;28;20162;-55
2022/05/13 07:17:58;;;;;;;4.38;1.90;;;15.30;99.90;;;;;;5054168;28;20219;-55
2022/05/13 07:20:26;;;;;;;9.18;2.10;;;15.30;99.90;;;;;;5054394;28;20257;-55
2022/05/13 07:22:53;;;;;;;8.63;2.10;;;15.50;99.90;;;;;;5052833;28;20174;-55
2022/05/13 07:25:18;;;;;;;4.45;1.88;;;15.90;99.90;;;;;;5053987;28;20198;-55
2022/05/13 07:27:44;;;;;;;5.60;2.10;;;15.80;99.90;;;;;;5053967;28;20194;-55
2022/05/13 07:30:10;;;;;;;7.80;2.13;;;15.90;99.90;;;;;;5054260;28;20561;-56
2022/05/13 07:32:36;;;;;;;7.75;2.10;;;15.80;99.90;;;;;;5054114;28;20570;-55
2022/05/13 07:35:02;;;;;;;7.00;1.90;;;16.00;99.90;;;;;;5053825;28;20166;-55
2022/05/13 07:37:28;;;;;;;4.47;2.10;;;15.90;99.90;;;;;;5054088;28;20262;-55
2022/05/13 07:42:38;;;;;;;4.88;2.10;;;16.20;99.90;;;;;;5054004;28;20185;-55
2022/05/13 07:45:04;;;;;;;8.63;2.15;;;16.50;99.90;;;;;;5053697;28;20640;-55
2022/05/13 07:47:30;;;;;;;9.48;2.22;;;16.20;99.90;;;;;;5053660;28;20169;-55
2022/05/13 07:49:56;;;;;;;6.80;2.00;;;16.30;99.90;;;;;;5053623;28;20163;-55
2022/05/13 07:52:24;;;;;;;5.60;2.38;;;16.40;99.90;;;;;;5053497;28;20683;-55
2022/05/13 07:54:50;;;;;;;4.55;2.00;;;16.50;99.90;;;;;;5053763;28;20175;-55
2022/05/13 07:57:15;;;;;;;5.55;2.00;;;16.40;99.90;;;;;;5053453;28;20257;-55
2022/05/13 08:02:25;;;;;;;5.60;2.05;;;16.60;99.90;;;;;;5053443;28;20297;-54
2022/05/13 08:04:50;;;;;;;9.38;2.75;;;16.50;99.90;;;;;;5053262;28;20252;-54
2022/05/13 08:07:16;;;;;;;7.93;2.00;;;16.70;99.90;;;;;;5053216;28;20167;-54
2022/05/13 08:09:42;;;;;;;7.15;1.80;;;16.70;99.90;;;;;;5053455;28;20253;-54
2022/05/13 08:12:08;;;;;;;5.47;2.22;;;16.60;99.90;;;;;;5053468;28;20732;-54
2022/05/13 08:14:33;;;;;;;6.22;1.75;;;17.80;99.90;;;;;;5053120;28;20224;-54
2022/05/13 08:16:59;;;;;;;9.05;2.10;;;16.70;99.90;;;;;;5053107;28;20220;-55
2022/05/13 08:19:24;;;;;;;7.25;2.00;;;16.80;99.90;;;;;;5053116;28;20536;-55
2022/05/13 08:21:50;;;;;;;4.95;2.13;;;16.80;99.90;;;;;;5053066;28;20173;-55
2022/05/13 08:24:15;;;;;;;5.30;2.00;;;16.90;99.90;;;;;;5053073;28;20171;-54
2022/05/13 08:26:41;;;;;;;4.90;2.22;;;17.00;99.90;;;;;;5051871;28;20175;-55
2022/05/13 08:29:06;;;;;;;4.30;2.15;;;17.10;99.90;;;;;;5052975;28;20245;-54
2022/05/13 08:31:32;;;;;;;8.70;2.10;;;17.30;99.90;;;;;;5052431;28;20217;-55
2022/05/13 08:33:59;;;;;;;3.80;1.95;;;17.00;99.90;;;;;;5052511;28;20300;-56
2022/05/13 08:36:25;;;;;;;6.97;2.10;;;17.00;99.90;;;;;;5052919;28;20190;-55
2022/05/13 08:38:50;;;;;;;5.80;2.03;;;17.10;99.90;;;;;;5052731;28;20175;-54
2022/05/13 08:41:27;;;;;;;4.95;2.15;;;17.50;99.90;;;;;;5052564;28;20236;-55
2022/05/13 08:43:57;;;;;;;5.18;1.92;;;17.50;99.90;;;;;;5051432;28;20189;-54
2022/05/13 08:46:40;;;;;;;9.38;2.35;;;17.50;99.90;;;;;;5050904;28;20541;-59
2022/05/13 08:49:26;;;;;;;7.43;2.17;;;17.60;99.90;;;;;;5051584;28;20174;-56
2022/05/13 08:51:54;;;;;;;10.52;2.63;;;17.70;99.90;;;;;;5050661;28;20581;-56
2022/05/13 08:54:23;;;;;;;9.50;2.92;;;17.90;99.90;;;;;;5051075;28;20573;-57
2022/05/13 08:56:52;;;;;;;5.82;2.20;;;17.70;99.90;;;;;;5051212;28;20170;-56
2022/05/13 08:59:41;;;;;;;2.78;1.90;;;17.80;99.90;;;;;;5050972;28;20174;-55
2022/05/13 09:02:21;;;;;;;7.07;1.88;;;17.60;99.90;;;;;;5051210;28;20177;-57
2022/05/13 09:04:59;;;;;;;6.03;1.90;;;17.80;99.90;;;;;;5050718;28;20275;-59
2022/05/13 09:07:26;;;;;;;8.90;2.22;;;17.60;99.90;;;;;;5050988;28;20185;-53
2022/05/13 09:09:57;;;;;;;6.65;2.50;;;17.90;99.90;;;;;;5050807;28;20185;-50
2022/05/13 09:12:29;;;;;;;6.95;2.30;;;17.90;99.90;;;;;;5050639;28;20264;-54
2022/05/13 09:15:21;;;;;;;5.70;2.50;;;18.10;99.90;;;;;;5050605;28;20170;-53
2022/05/13 09:18:00;;;;;;;4.57;1.77;;;18.00;99.90;;;;;;5050726;28;20179;-51
2022/05/13 09:20:26;;;;;;;4.82;2.20;;;18.00;99.90;;;;;;5050665;28;20220;-50
2022/05/13 09:22:58;;;;;;;5.32;1.88;;;18.00;99.90;;;;;;5050734;28;20167;-55
2022/05/13 09:25:53;;;;;;;6.88;2.05;;;17.90;99.90;;;;;;5052141;28;20170;-54
2022/05/13 09:28:19;;;;;;;5.45;1.58;;;18.10;99.90;;;;;;5051963;28;20250;-54
2022/05/13 09:30:47;;;;;;;4.75;1.80;;;18.20;99.90;;;;;;5051880;28;20289;-54
2022/05/13 09:33:30;;;;;;;3.90;1.65;;;18.50;99.90;;;;;;5050580;28;20257;-55
2022/05/13 09:35:59;;;;;;;3.85;1.80;;;18.80;99.90;;;;;;5051803;28;20166;-54
2022/05/13 09:38:31;;;;;;;7.22;2.42;;;18.60;99.90;;;;;;5051770;28;20178;-54
2022/05/13 09:41:05;;;;;;;7.30;2.20;;;18.80;99.90;;;;;;5051714;28;20650;-54
2022/05/13 09:43:39;;;;;;;4.47;1.42;;;18.80;99.90;;;;;;5051763;28;20228;-53
2022/05/13 09:46:22;;;;;;;3.97;1.90;;;18.50;99.90;;;;;;5054229;28;20166;-54
2022/05/13 09:48:59;;;;;;;6.70;1.60;;;18.60;99.90;;;;;;5055771;28;20162;-54
2022/05/13 09:51:36;;;;;;;5.72;1.90;;;18.90;99.90;;;;;;5055802;28;20197;-54
2022/05/13 09:54:07;;;;;;;4.75;1.65;;;19.30;99.90;;;;;;5055636;28;20253;-54
2022/05/13 09:56:39;;;;;;;4.32;1.83;;;19.10;99.90;;;;;;5056034;28;20197;-54
2022/05/13 09:59:12;;;;;;;4.28;1.45;;;19.10;99.90;;;;;;5055916;28;20181;-55
2022/05/13 10:01:37;;;;;;;3.88;1.27;;;19.20;99.90;;;;;;5055779;28;20178;-55
2022/05/13 10:04:11;;;;;;;3.67;1.40;;;19.10;99.90;;;;;;5055388;28;20225;-54
2022/05/13 10:06:38;;;;;;;5.57;1.40;;;19.30;99.90;;;;;;5055833;28;20282;-58
2022/05/13 10:14:42;;;;;;;5.43;1.88;;;19.50;99.90;;;;;;5055401;28;20177;-54
2022/05/13 10:17:15;;;;;;;4.22;1.40;;;19.70;99.90;;;;;;5055599;28;20527;-54
2022/05/13 10:19:46;;;;;;;2.80;1.38;;;19.30;99.90;;;;;;5055662;28;20173;-56
2022/05/13 10:22:23;;;;;;;3.00;1.50;;;19.20;99.90;;;;;;5055369;28;20163;-53
2022/05/13 10:25:05;;;;;;;1.98;1.15;;;19.70;99.90;;;;;;5055195;28;20166;-55
2022/05/13 10:27:50;;;;;;;2.05;1.23;;;19.90;99.90;;;;;;5055230;28;20166;-54
2022/05/13 10:30:30;;;;;;;6.68;1.83;;;20.00;99.50;;;;;;5055310;28;20532;-55
2022/05/13 10:33:05;;;;;;;6.95;1.50;;;20.10;99.90;;;;;;5055065;28;20196;-57
2022/05/13 10:36:04;;;;;;;2.25;1.27;;;19.90;99.70;;;;;;5055309;28;20236;-54
2022/05/13 10:38:50;;;;;;;2.70;1.35;;;19.80;99.00;;;;;;5055098;28;20163;-55
2022/05/13 10:41:36;;;;;;;5.45;1.85;;;19.70;98.10;;;;;;5054963;28;20186;-55
2022/05/13 10:44:11;;;;;;;2.13;1.23;;;19.60;96.80;;;;;;5054820;28;20178;-55
2022/05/13 10:46:52;;;;;;;1.80;1.20;;;19.40;98.10;;;;;;5055361;28;20166;-56
2022/05/13 10:49:18;;;;;;;3.25;1.05;;;19.50;98.10;;;;;;5054702;28;20166;-55
2022/05/13 10:52:00;;;;;;;3.40;1.33;;;19.80;97.50;;;;;;5054731;28;20206;-56
2022/05/13 10:55:05;;;;;;;3.17;1.52;;;19.70;97.40;;;;;;5054636;28;20163;-55
2022/05/13 10:57:49;;;;;;;13.05;1.75;;;19.70;97.50;;;;;;5053062;28;20224;-55
2022/05/13 11:00:30;;;;;;;3.83;1.65;;;19.60;98.10;;;;;;5054525;28;20169;-55
2022/05/13 11:03:21;;;;;;;2.97;1.45;;;19.60;98.60;;;;;;5054264;28;20563;-54
2022/05/13 11:06:12;;;;;;;2.90;1.40;;;19.60;99.90;;;;;;5054421;28;20727;-54
2022/05/13 11:08:52;;;;;;;3.28;1.40;;;19.60;98.00;;;;;;5054640;28;20186;-54
2022/05/13 11:11:43;;;;;;;8.10;1.63;;;19.60;99.80;;;;;;5054274;28;20202;-53
2022/05/13 11:14:58;;;;;;;2.00;1.30;;;20.00;99.90;;;;;;5054584;28;20651;-54
2022/05/13 11:17:37;;;;;;;3.35;1.35;;;20.10;99.40;;;;;;5053221;28;20675;-53
2022/05/13 11:20:11;;;;;;;4.57;1.50;;;20.00;99.50;;;;;;5054138;28;20163;-53
2022/05/13 11:22:39;;;;;;;3.55;1.38;;;19.80;99.90;;;;;;5054426;28;20169;-53
2022/05/13 11:28:04;;;;;;;5.53;1.70;;;20.00;99.10;;;;;;5053976;28;20201;-55
2022/05/13 11:31:08;;;;;;;6.20;1.75;;;19.70;98.60;;;;;;5053869;28;20213;-54
2022/05/13 11:33:46;;;;;;;4.85;1.58;;;19.50;99.50;;;;;;5050840;28;20187;-54
2022/05/13 11:36:41;;;;;;;5.20;1.70;;;19.20;99.80;;;;;;5054077;28;20528;-54
2022/05/13 11:39:25;;;;;;;4.30;1.50;;;19.50;99.90;;;;;;5045781;28;20232;-55
2022/05/13 11:42:09;;;;;;;3.53;1.67;;;19.70;99.90;;;;;;5053805;28;20166;-54
2022/05/13 11:45:12;;;;;;;5.10;1.60;;;19.80;99.90;;;;;;5053613;28;20205;-55
2022/05/13 11:47:56;;;;;;;6.18;2.22;;;20.30;98.60;;;;;;5053793;28;20527;-55
2022/05/13 11:50:31;;;;;;;3.33;1.70;;;20.60;98.50;;;;;;5053859;28;20171;-58
2022/05/13 11:52:59;;;;;;;3.50;1.65;;;20.50;99.30;;;;;;5053529;28;20189;-58
2022/05/13 11:55:45;;;;;;;6.40;2.22;;;20.10;99.10;;;;;;5053750;28;20227;-55
2022/05/13 11:58:48;;;;;;;3.70;1.88;;;20.30;99.90;;;;;;5053461;28;20521;-55
2022/05/13 12:01:34;;;;;;;2.38;1.40;;;20.70;98.70;;;;;;5053646;28;20185;-57
2022/05/13 12:04:16;;;;;;;4.22;1.50;;;21.00;97.70;;;;;;5053055;28;20229;-55
2022/05/13 12:06:50;;;;;;;6.57;1.75;;;21.00;97.80;;;;;;5053499;28;20178;-55
2022/05/13 12:09:36;;;;;;;3.83;1.92;;;20.90;97.10;;;;;;5052769;28;20173;-55
2022/05/13 12:12:16;;;;;;;4.30;1.70;;;20.60;96.90;;;;;;5053277;28;20206;-55
2022/05/13 12:14:48;;;;;;;3.33;1.50;;;20.30;97.10;;;;;;5053070;28;20158;-54
2022/05/13 12:17:45;;;;;;;4.45;1.65;;;20.30;98.60;;;;;;5053158;28;20177;-57
2022/05/13 12:20:48;;;;;;;3.40;1.50;;;20.50;98.00;;;;;;5053402;28;20178;-57
2022/05/13 12:23:19;;;;;;;5.60;1.85;;;20.80;97.10;;;;;;5052873;28;20534;-59
2022/05/13 12:25:54;;;;;;;3.38;1.70;;;20.30;95.60;;;;;;5053003;28;20171;-56
2022/05/13 12:28:19;;;;;;;6.50;1.55;;;20.40;97.30;;;;;;5052788;28;20651;-55
2022/05/13 12:30:48;;;;;;;4.53;1.70;;;20.70;98.00;;;;;;5052771;28;20159;-56
2022/05/13 12:33:20;;;;;;;2.35;1.27;;;21.10;98.40;;;;;;5052681;28;20640;-55
2022/05/13 12:39:09;;;;;;;9.50;1.70;;;20.80;95.10;;;;;;5052943;28;20178;-57
2022/05/13 12:41:46;;;;;;;5.40;1.60;;;21.00;95.50;;;;;;5052586;28;20171;-56
2022/05/13 12:44:15;;;;;;;5.55;1.38;;;21.20;95.20;;;;;;5052740;28;20209;-55
2022/05/13 12:46:52;;;;;;;5.10;1.80;;;21.40;96.20;;;;;;5052803;28;20293;-55
2022/05/13 12:49:25;;;;;;;5.18;1.45;;;21.40;95.30;;;;;;5052496;28;20220;-55
2022/05/13 12:52:04;;;;;;;2.47;1.20;;;20.90;95.20;;;;;;5052436;28;20235;-55
2022/05/13 12:54:40;;;;;;;4.43;1.60;;;21.20;95.90;;;;;;5052668;28;20174;-57
2022/05/13 12:57:19;;;;;;;1.85;1.35;;;21.20;95.50;;;;;;5052350;28;20202;-55
2022/05/13 12:59:50;;;;;;;4.45;1.55;;;21.10;94.80;;;;;;5050941;28;20167;-55
2022/05/13 13:02:16;;;;;;;3.00;1.20;;;21.20;96.00;;;;;;5052334;28;20194;-58
2022/05/13 13:05:00;;;;;;;4.28;1.63;;;21.20;95.10;;;;;;5052108;28;20253;-55
2022/05/13 13:07:29;;;;;;;3.42;1.42;;;21.40;96.10;;;;;;5052169;28;20170;-55
2022/05/13 13:09:57;;;;;;;7.90;1.85;;;21.30;94.10;;;;;;5052416;28;20177;-55
2022/05/13 13:12:40;;;;;;;4.80;2.20;;;21.30;95.00;;;;;;5051980;28;20551;-57
2022/05/13 13:15:15;;;;;;;2.80;1.15;;;21.30;94.40;;;;;;5052189;28;20170;-58
2022/05/13 13:17:57;;;;;;;8.70;1.60;;;21.40;94.70;;;;;;5052116;28;20166;-56
2022/05/13 13:20:27;;;;;;;4.38;1.20;;;21.40;95.20;;;;;;5052169;28;20191;-58
2022/05/13 13:22:55;;;;;;;4.30;1.58;;;21.50;94.40;;;;;;5052268;28;20257;-58
2022/05/13 13:25:30;;;;;;;4.90;1.80;;;21.50;95.40;;;;;;5051987;28;20217;-58
2022/05/13 13:28:02;;;;;;;5.47;1.27;;;21.30;94.30;;;;;;5051897;28;20163;-57
2022/05/13 13:30:30;;;;;;;3.45;1.70;;;21.60;94.40;;;;;;5052068;28;20169;-59
2022/05/13 13:32:56;;;;;;;4.38;1.75;;;21.70;94.30;;;;;;5052094;28;20179;-58
2022/05/13 13:35:37;;;;;;;4.70;1.30;;;21.90;94.90;;;;;;5052251;28;20166;-58